createdAt,value
2019-01-28T06:55:37.100Z,2.00
2019-01-28T06:58:25.076Z,2.10
2019-01-28T07:01:12.667Z,2.10
2019-01-28T07:04:00.623Z,2.20
2019-01-28T07:06:48.652Z,2.30
2019-01-28T07:09:36.256Z,2.40
2019-01-28T07:12:24.164Z,2.50
2019-01-28T07:15:14.248Z,2.60
2019-01-28T07:18:02.036Z,2.60
2019-01-28T07:20:49.775Z,2.70
2019-01-28T07:23:37.596Z,2.70
2019-01-28T07:26:25.423Z,2.70
2019-01-28T07:29:13.211Z,2.70
2019-01-28T07:32:01.035Z,2.70
2019-01-28T07:34:48.601Z,2.80
2019-01-28T07:37:36.261Z,2.80
2019-01-28T07:40:24.501Z,2.90
2019-01-28T07:43:12.133Z,3.00
2019-01-28T07:46:00.334Z,3.00
2019-01-28T07:48:48.323Z,3.00
2019-01-28T07:51:36.284Z,3.10
2019-01-28T07:54:23.924Z,3.20
2019-01-28T07:57:11.948Z,3.30
2019-01-28T07:59:59.892Z,3.40
2019-01-28T08:02:48.301Z,3.50
2019-01-28T08:05:36.195Z,3.60
2019-01-28T08:08:23.752Z,3.60
2019-01-28T08:11:11.589Z,3.60
2019-01-28T08:13:59.438Z,3.60
2019-01-28T08:16:47.040Z,3.70
2019-01-28T08:19:34.925Z,3.80
2019-01-28T08:22:22.792Z,4.00
2019-01-28T08:25:12.912Z,4.00
2019-01-28T08:28:00.828Z,4.10
2019-01-28T08:30:48.712Z,4.10
2019-01-28T08:33:37.293Z,4.10
2019-01-28T08:36:25.053Z,4.00
2019-01-28T08:39:13.000Z,3.90
2019-01-28T08:42:00.855Z,3.70
2019-01-28T08:44:48.685Z,3.70
2019-01-28T08:47:36.635Z,3.70
2019-01-28T08:50:26.684Z,3.80
2019-01-28T08:53:14.368Z,3.80
2019-01-28T08:56:02.197Z,3.70
2019-01-28T08:58:49.828Z,3.70
2019-01-28T09:01:37.777Z,3.70
2019-01-28T09:04:25.430Z,3.70
2019-01-28T09:07:13.007Z,3.70
2019-01-28T09:10:01.045Z,3.70
2019-01-28T09:12:48.952Z,3.60
2019-01-28T09:15:36.693Z,3.70
2019-01-28T09:18:26.441Z,3.70
2019-01-28T09:21:13.648Z,3.80
2019-01-28T09:24:01.537Z,4.00
2019-01-28T09:26:49.464Z,4.10
2019-01-28T09:29:37.092Z,4.20
2019-01-28T09:32:24.777Z,4.20
2019-01-28T09:35:12.653Z,4.30
2019-01-28T09:38:00.747Z,4.40
2019-01-28T09:40:48.641Z,4.40
2019-01-28T09:43:36.395Z,4.50
2019-01-28T09:46:24.168Z,4.50
2019-01-28T09:49:12.063Z,4.60
2019-01-28T09:51:59.900Z,4.60
2019-01-28T09:54:47.788Z,4.60
2019-01-28T09:57:35.620Z,4.40
2019-01-28T10:00:35.559Z,4.40
2019-01-28T10:03:23.268Z,4.40
2019-01-28T10:06:10.852Z,4.40
2019-01-28T10:08:58.760Z,4.40
2019-01-28T10:11:46.616Z,4.60
2019-01-28T10:14:34.921Z,4.70
2019-01-28T10:17:22.681Z,4.80
2019-01-28T10:20:19.219Z,4.90
2019-01-28T10:23:06.833Z,5.00
2019-01-28T10:25:57.766Z,4.90
2019-01-28T10:28:44.040Z,5.00
2019-01-28T10:31:31.932Z,5.00
2019-01-28T10:34:19.616Z,5.00
2019-01-28T10:37:07.528Z,4.90
2019-01-28T10:39:55.381Z,4.90
2019-01-28T10:42:43.320Z,4.90
2019-01-28T10:45:31.051Z,5.00
2019-01-28T10:48:19.232Z,5.00
2019-01-28T10:51:06.912Z,5.00
2019-01-28T10:53:54.632Z,4.90
2019-01-28T10:56:42.394Z,4.90
2019-01-28T10:59:29.968Z,4.90
2019-01-28T11:02:17.749Z,4.90
2019-01-28T11:05:06.488Z,4.80
2019-01-28T11:07:54.372Z,4.80
2019-01-28T11:10:42.406Z,5.00
2019-01-28T11:13:30.108Z,5.10
2019-01-28T11:16:18.392Z,5.20
2019-01-28T11:19:06.356Z,5.20
2019-01-28T11:21:54.014Z,5.20
2019-01-28T11:24:41.994Z,5.10
2019-01-28T11:27:29.954Z,4.90
2019-01-28T11:30:25.103Z,4.90
2019-01-28T11:33:13.524Z,5.00
2019-01-28T11:36:05.522Z,5.00
2019-01-28T11:38:51.103Z,5.00
2019-01-28T11:41:38.653Z,4.80
2019-01-28T11:44:26.686Z,4.80
2019-01-28T11:47:14.807Z,4.70
2019-01-28T11:50:02.717Z,4.80
2019-01-28T11:52:50.668Z,4.90
2019-01-28T11:55:38.673Z,4.90
2019-01-28T11:58:26.600Z,4.80
2019-01-28T12:01:15.861Z,4.80
2019-01-28T12:04:04.939Z,4.60
2019-01-28T12:06:53.044Z,4.60
2019-01-28T12:09:40.815Z,4.50
2019-01-28T12:12:28.726Z,4.50
2019-01-28T12:15:19.095Z,4.40
2019-01-28T12:18:06.972Z,4.40
2019-01-28T12:20:54.859Z,4.50
2019-01-28T12:23:42.537Z,4.60
2019-01-28T12:26:30.117Z,4.60
2019-01-28T12:29:18.100Z,4.50
2019-01-28T12:32:05.974Z,4.50
2019-01-28T12:34:53.951Z,4.50
2019-01-28T12:37:41.828Z,4.50
2019-01-28T12:40:29.733Z,4.40
2019-01-28T12:43:17.916Z,4.40
2019-01-28T12:46:06.118Z,4.30
2019-01-28T12:48:53.861Z,4.20
2019-01-28T12:51:41.565Z,4.10
2019-01-28T12:54:29.245Z,4.10
2019-01-28T12:57:16.865Z,4.00
2019-01-28T13:00:07.872Z,4.00
2019-01-28T13:02:55.840Z,4.00
2019-01-28T13:05:43.667Z,4.00
2019-01-28T13:08:31.702Z,3.80
2019-01-28T13:11:19.269Z,3.80
2019-01-28T13:14:06.900Z,3.80
2019-01-28T13:16:54.509Z,3.80
2019-01-28T13:19:42.480Z,3.70
2019-01-28T13:22:30.064Z,3.70
2019-01-28T13:25:20.847Z,3.60
2019-01-28T13:28:09.186Z,3.60
2019-01-28T13:30:56.988Z,3.50
2019-01-28T13:33:44.888Z,3.50
2019-01-28T13:36:32.560Z,3.50
2019-01-28T13:39:20.521Z,3.40
2019-01-28T13:42:08.640Z,3.30
2019-01-28T13:44:56.457Z,3.30
2019-01-28T13:47:44.448Z,3.20
2019-01-28T13:50:32.080Z,3.20
2019-01-28T13:53:19.732Z,3.10
2019-01-28T13:56:07.282Z,3.00
2019-01-28T13:58:55.104Z,2.80
2019-01-28T14:01:42.812Z,2.80
2019-01-28T14:04:31.024Z,2.70
2019-01-28T14:07:18.964Z,2.70
2019-01-28T14:10:15.512Z,2.70
2019-01-28T14:13:03.148Z,2.70
2019-01-28T14:15:51.228Z,2.60
2019-01-28T14:18:38.937Z,2.50
2019-01-28T14:21:26.824Z,2.50
2019-01-28T14:24:14.676Z,2.50
2019-01-28T14:27:02.549Z,2.40
2019-01-28T14:29:50.280Z,2.40
2019-01-28T14:32:38.080Z,2.40
2019-01-28T14:35:26.078Z,2.40
2019-01-28T14:38:14.255Z,2.40
2019-01-28T14:41:01.871Z,2.40
2019-01-28T14:43:49.944Z,2.40
2019-01-28T14:46:37.588Z,2.30
2019-01-28T14:49:25.499Z,2.30
2019-01-28T14:52:13.367Z,2.30
2019-01-28T14:55:01.376Z,2.30
2019-01-28T14:57:49.173Z,2.30
2019-01-28T15:00:41.733Z,2.30
2019-01-28T15:03:29.356Z,2.30
2019-01-28T15:06:17.576Z,2.30
2019-01-28T15:09:09.291Z,2.20
2019-01-28T15:11:57.288Z,2.20
2019-01-28T15:14:45.144Z,2.20
2019-01-28T15:17:33.013Z,2.10
2019-01-28T15:20:21.024Z,2.10
2019-01-28T15:23:09.001Z,2.10
2019-01-28T15:25:56.652Z,2.00
2019-01-28T15:28:44.500Z,2.00
2019-01-28T15:31:32.278Z,2.00
2019-01-28T15:34:20.452Z,2.00
2019-01-28T15:37:08.120Z,1.90
2019-01-28T15:39:55.961Z,1.90
2019-01-28T15:42:43.931Z,1.90
2019-01-28T15:45:35.122Z,1.90
2019-01-28T15:48:23.383Z,1.80
2019-01-28T15:51:11.046Z,1.80
2019-01-28T15:53:58.579Z,1.80
2019-01-28T15:56:46.241Z,1.80
2019-01-28T15:59:35.431Z,1.80
2019-01-28T16:02:23.062Z,1.90
2019-01-28T16:05:10.999Z,1.80
2019-01-28T16:07:58.676Z,1.80
2019-01-28T16:10:46.488Z,1.90
2019-01-28T16:13:34.213Z,1.90
2019-01-28T16:16:22.065Z,1.90
2019-01-28T16:19:10.246Z,1.90
2019-01-28T16:21:58.681Z,1.90
2019-01-28T16:24:46.336Z,1.80
2019-01-28T16:27:34.243Z,1.90
2019-01-28T16:30:30.640Z,1.90
2019-01-28T16:33:18.245Z,1.90
2019-01-28T16:36:06.637Z,1.90
2019-01-28T16:38:54.428Z,1.90
2019-01-28T16:41:42.384Z,1.90
2019-01-28T16:44:30.317Z,1.90
2019-01-28T16:47:18.040Z,1.90
2019-01-28T16:50:08.952Z,1.90
2019-01-28T16:52:56.992Z,1.90
2019-01-28T16:55:44.644Z,1.90
2019-01-28T16:58:32.462Z,1.80
2019-01-28T17:01:20.305Z,1.80
2019-01-28T17:04:08.053Z,1.80
2019-01-28T17:06:55.928Z,1.80
2019-01-28T17:09:43.676Z,1.90
2019-01-28T17:12:31.756Z,1.90
2019-01-28T17:15:21.408Z,1.90
2019-01-28T17:18:09.354Z,1.90
2019-01-28T17:20:57.157Z,1.90
2019-01-28T17:23:48.227Z,1.90
2019-01-28T17:26:36.259Z,1.90
2019-01-28T17:29:24.140Z,1.90
2019-01-28T17:32:11.869Z,1.90
2019-01-28T17:34:59.916Z,1.90
2019-01-28T17:37:47.637Z,1.90
2019-01-28T17:40:35.247Z,1.90
2019-01-28T17:43:22.883Z,1.90
2019-01-28T17:46:10.956Z,1.90
2019-01-28T17:48:58.707Z,1.90
2019-01-28T17:51:46.413Z,1.90
2019-01-28T17:54:34.019Z,1.90
2019-01-28T17:57:21.712Z,1.90
2019-01-28T18:00:15.137Z,1.90
2019-01-28T18:03:02.888Z,1.90
2019-01-28T18:05:50.649Z,1.90
2019-01-28T18:08:41.578Z,1.90
2019-01-28T18:11:29.671Z,1.90
2019-01-28T18:14:17.575Z,1.90
2019-01-28T18:17:05.732Z,1.90
2019-01-28T18:19:53.356Z,1.90
2019-01-28T18:22:45.244Z,2.00
2019-01-28T18:25:35.203Z,2.00
2019-01-28T18:28:23.074Z,2.00
2019-01-28T18:31:10.992Z,2.10
2019-01-28T18:33:58.878Z,2.10
2019-01-28T18:36:46.476Z,2.00
2019-01-28T18:39:34.286Z,2.00
2019-01-28T18:42:22.420Z,2.10
2019-01-28T18:45:18.135Z,2.10
2019-01-28T18:48:03.010Z,2.10
2019-01-28T18:50:50.853Z,2.10
2019-01-28T18:53:38.736Z,2.10
2019-01-28T18:56:26.441Z,2.10
2019-01-28T18:59:14.248Z,2.20
2019-01-28T19:02:01.969Z,2.20
2019-01-28T19:04:49.596Z,2.20
2019-01-28T19:07:39.434Z,2.30
2019-01-28T19:10:34.696Z,2.30
2019-01-28T19:13:24.347Z,2.40
2019-01-28T19:16:23.720Z,2.30
2019-01-28T19:19:16.425Z,2.30
2019-01-28T19:22:05.524Z,2.30
2019-01-28T19:24:53.208Z,2.30
2019-01-28T19:27:41.012Z,2.40
2019-01-28T19:30:28.873Z,2.40
2019-01-28T19:33:16.765Z,2.40
2019-01-28T19:36:04.852Z,2.40
2019-01-28T19:38:52.892Z,2.30
2019-01-28T19:41:40.774Z,2.30
2019-01-28T19:44:28.522Z,2.20
2019-01-28T19:47:16.127Z,2.20
2019-01-28T19:50:06.964Z,2.20
2019-01-28T19:52:55.110Z,2.10
2019-01-28T19:55:42.695Z,2.10
2019-01-28T19:58:30.478Z,2.10
2019-01-28T20:01:18.364Z,2.10
2019-01-28T20:04:06.184Z,2.00
2019-01-28T20:06:54.085Z,1.90
2019-01-28T20:09:41.931Z,1.90
2019-01-28T20:12:29.836Z,2.00
2019-01-28T20:15:20.141Z,2.00
2019-01-28T20:18:08.011Z,2.10
2019-01-28T20:20:55.838Z,2.10
2019-01-28T20:23:43.440Z,2.10
2019-01-28T20:26:31.368Z,2.10
2019-01-28T20:29:19.421Z,2.00
2019-01-28T20:32:07.293Z,2.10
2019-01-28T20:34:54.957Z,2.00
2019-01-28T20:37:42.761Z,2.00
2019-01-28T20:40:30.412Z,1.80
2019-01-28T20:43:23.868Z,1.70
2019-01-28T20:46:07.700Z,1.70
2019-01-28T20:48:55.641Z,1.60
2019-01-28T20:51:43.560Z,1.50
2019-01-28T20:54:31.985Z,1.50
2019-01-28T20:57:22.515Z,1.50
2019-01-28T21:00:25.288Z,1.50
2019-01-28T21:03:13.321Z,1.50
2019-01-28T21:06:01.158Z,1.70
2019-01-28T21:08:49.042Z,1.70
2019-01-28T21:11:37.219Z,1.60
2019-01-28T21:14:25.253Z,1.60
2019-01-28T21:17:12.980Z,1.50
2019-01-28T21:20:00.828Z,1.60
2019-01-28T21:22:49.189Z,1.50
2019-01-28T21:25:37.123Z,1.50
2019-01-28T21:28:24.975Z,1.50
2019-01-28T21:31:12.855Z,1.60
2019-01-28T21:34:00.791Z,1.50
2019-01-28T21:36:50.428Z,1.60
2019-01-28T21:39:38.317Z,1.50
2019-01-28T21:42:26.150Z,1.60
2019-01-28T21:45:15.690Z,1.60
2019-01-28T21:48:04.023Z,1.60
2019-01-28T21:50:52.081Z,1.70
2019-01-28T21:53:39.901Z,1.70
2019-01-28T21:56:27.776Z,1.70
2019-01-28T21:59:15.653Z,1.70
2019-01-28T22:02:03.428Z,1.60
2019-01-28T22:04:51.184Z,1.60
2019-01-28T22:07:38.921Z,1.60
2019-01-28T22:10:26.744Z,1.60
2019-01-28T22:13:14.702Z,1.60
2019-01-28T22:16:03.801Z,1.60
2019-01-28T22:18:51.137Z,1.60
2019-01-28T22:21:38.968Z,1.60
2019-01-28T22:24:26.627Z,1.50
2019-01-28T22:27:14.684Z,1.50
2019-01-28T22:30:02.252Z,1.50
2019-01-28T22:32:50.557Z,1.50
2019-01-28T22:35:38.172Z,1.30
2019-01-28T22:38:25.917Z,1.40
2019-01-28T22:41:13.669Z,1.40
2019-01-28T22:44:01.744Z,1.30
2019-01-28T22:46:49.372Z,1.30
2019-01-28T22:49:37.287Z,1.30
2019-01-28T22:52:25.172Z,1.30
2019-01-28T22:55:15.448Z,1.30
2019-01-28T22:58:03.276Z,1.40
2019-01-28T23:00:54.828Z,1.30
2019-01-28T23:03:42.913Z,1.40
2019-01-28T23:06:30.859Z,1.30
2019-01-28T23:09:18.797Z,1.30
2019-01-28T23:12:06.836Z,1.30
2019-01-28T23:14:54.512Z,1.40
2019-01-28T23:17:42.349Z,1.40
2019-01-28T23:20:30.012Z,1.40
2019-01-28T23:23:17.904Z,1.50
2019-01-28T23:26:06.117Z,1.60
2019-01-28T23:28:53.749Z,1.60
2019-01-28T23:31:41.476Z,1.70
2019-01-28T23:34:29.357Z,1.80
2019-01-28T23:37:17.137Z,1.70
2019-01-28T23:40:08.888Z,1.70
2019-01-28T23:42:56.736Z,1.60
2019-01-28T23:45:44.680Z,1.60
2019-01-28T23:48:32.459Z,1.50
2019-01-28T23:51:20.296Z,1.50
2019-01-28T23:54:08.255Z,1.50
2019-01-28T23:56:56.492Z,1.50
2019-01-28T23:59:44.180Z,1.60
